createdAt,value
2019-04-03T00:00:15.872Z,8.80
2019-04-03T00:02:46.603Z,6.85
2019-04-03T00:05:18.267Z,5.62
2019-04-03T00:07:49.015Z,5.60
2019-04-03T00:10:19.633Z,5.03
2019-04-03T00:12:50.352Z,2.72
2019-04-03T00:15:21.044Z,4.42
2019-04-03T00:17:51.679Z,3.77
2019-04-03T00:20:22.309Z,5.72
2019-04-03T00:22:53.133Z,5.75
2019-04-03T00:25:23.647Z,3.70
2019-04-03T00:27:54.473Z,6.42
2019-04-03T00:30:24.992Z,2.72
2019-04-03T00:32:55.809Z,4.62
2019-04-03T00:35:26.379Z,6.28
2019-04-03T00:37:57.218Z,4.67
2019-04-03T00:40:27.975Z,5.87
2019-04-03T00:42:58.780Z,3.70
2019-04-03T00:45:29.401Z,3.65
2019-04-03T00:48:00.254Z,3.55
2019-04-03T00:50:30.859Z,5.03
2019-04-03T00:53:01.483Z,2.77
2019-04-03T00:55:32.021Z,5.47
2019-04-03T00:58:04.217Z,3.08
2019-04-03T01:00:34.911Z,3.77
2019-04-03T01:03:05.574Z,6.28
2019-04-03T01:05:37.213Z,5.03
2019-04-03T01:08:07.838Z,4.17
2019-04-03T01:13:54.053Z,7.65
2019-04-03T01:16:24.664Z,5.12
2019-04-03T01:18:55.301Z,4.42
2019-04-03T01:21:28.701Z,3.27
2019-04-03T01:23:59.523Z,4.67
2019-04-03T01:26:31.365Z,5.90
2019-04-03T01:29:02.203Z,3.20
2019-04-03T01:31:32.833Z,3.00
2019-04-03T01:34:03.565Z,3.00
2019-04-03T01:36:36.431Z,5.25
2019-04-03T01:39:07.666Z,4.95
2019-04-03T01:41:38.185Z,3.75
2019-04-03T01:44:09.009Z,4.35
2019-04-03T01:46:39.977Z,3.83
2019-04-03T01:49:10.710Z,4.03
2019-04-03T01:51:44.071Z,6.58
2019-04-03T01:54:14.862Z,6.33
2019-04-03T01:56:46.518Z,5.72
2019-04-03T01:59:17.324Z,4.92
2019-04-03T02:01:47.963Z,4.50
2019-04-03T02:04:18.609Z,4.72
2019-04-03T02:06:50.400Z,2.70
2019-04-03T02:09:22.233Z,6.22
2019-04-03T02:11:52.868Z,6.60
2019-04-03T02:14:23.653Z,4.47
2019-04-03T02:16:54.185Z,4.30
2019-04-03T02:19:26.584Z,4.95
2019-04-03T02:21:58.741Z,7.78
2019-04-03T02:24:31.773Z,4.17
2019-04-03T02:27:03.141Z,6.50
2019-04-03T02:29:35.410Z,7.53
2019-04-03T02:32:06.124Z,4.70
2019-04-03T02:34:37.141Z,5.67
2019-04-03T02:37:08.126Z,2.67
2019-04-03T02:39:38.998Z,2.83
2019-04-03T02:42:09.945Z,3.65
2019-04-03T02:44:40.875Z,3.27
2019-04-03T02:47:12.765Z,3.35
2019-04-03T02:49:43.980Z,2.70
2019-04-03T02:52:14.730Z,4.67
2019-04-03T02:54:45.962Z,3.85
2019-04-03T02:57:17.862Z,3.87
2019-04-03T02:59:49.042Z,3.45
2019-04-03T03:02:19.968Z,4.85
2019-04-03T03:04:54.033Z,4.25
2019-04-03T03:10:20.537Z,8.55
2019-04-03T03:12:51.393Z,6.05
2019-04-03T03:15:45.028Z,3.85
2019-04-03T03:18:16.328Z,3.47
2019-04-03T03:20:47.672Z,5.62
2019-04-03T03:23:22.463Z,4.55
2019-04-03T03:25:51.535Z,4.85
2019-04-03T03:28:25.093Z,5.22
2019-04-03T03:31:02.632Z,4.47
2019-04-03T03:33:35.443Z,5.55
2019-04-03T03:36:02.533Z,5.00
2019-04-03T03:38:33.934Z,4.35
2019-04-03T03:41:05.124Z,5.03
2019-04-03T03:43:38.376Z,4.05
2019-04-03T03:46:08.084Z,4.58
2019-04-03T03:48:42.502Z,3.80
2019-04-03T03:51:13.162Z,5.92
2019-04-03T03:53:45.804Z,6.55
2019-04-03T03:56:20.619Z,3.45
2019-04-03T03:58:52.159Z,4.72
2019-04-03T04:01:23.185Z,4.42
2019-04-03T04:03:53.894Z,4.67
2019-04-03T04:06:28.209Z,6.17
2019-04-03T04:08:57.946Z,6.55
2019-04-03T04:11:30.795Z,6.15
2019-04-03T04:14:01.817Z,5.65
2019-04-03T04:16:37.353Z,5.75
2019-04-03T04:19:08.839Z,3.62
2019-04-03T04:21:42.483Z,8.40
2019-04-03T04:24:12.300Z,3.70
2019-04-03T04:26:43.924Z,4.55
2019-04-03T04:29:14.831Z,6.30
2019-04-03T04:31:57.360Z,4.53
2019-04-03T04:34:35.143Z,4.62
2019-04-03T04:37:06.024Z,6.22
2019-04-03T04:39:36.758Z,5.70
2019-04-03T04:42:07.415Z,5.55
2019-04-03T04:44:40.352Z,5.58
2019-04-03T04:50:00.977Z,7.42
2019-04-03T04:52:31.576Z,24.63
2019-04-03T04:55:02.914Z,8.00
2019-04-03T04:57:33.659Z,6.42
2019-04-03T05:00:06.900Z,7.65
2019-04-03T05:02:37.507Z,5.72
2019-04-03T05:05:08.966Z,5.90
2019-04-03T05:07:39.789Z,5.72
2019-04-03T05:10:11.447Z,5.35
2019-04-03T05:12:44.747Z,7.00
2019-04-03T05:15:14.613Z,9.45
2019-04-03T05:17:45.308Z,6.87
2019-04-03T05:20:15.976Z,6.42
2019-04-03T05:22:46.604Z,7.42
2019-04-03T05:25:17.323Z,12.28
2019-04-03T05:27:48.077Z,57.48
2019-04-03T05:30:29.552Z,22.45
2019-04-03T05:33:00.656Z,11.48
2019-04-03T05:35:31.523Z,11.48
2019-04-03T05:38:02.237Z,9.13
2019-04-03T05:40:32.884Z,5.47
2019-04-03T05:43:09.222Z,7.28
2019-04-03T05:45:41.790Z,12.25
2019-04-03T05:48:13.528Z,10.90
2019-04-03T05:50:44.808Z,27.70
2019-04-03T05:53:15.588Z,35.15
2019-04-03T05:55:46.499Z,18.73
2019-04-03T05:58:17.350Z,14.18
2019-04-03T06:00:48.104Z,9.95
2019-04-03T06:03:18.988Z,15.05
2019-04-03T06:05:49.784Z,12.23
2019-04-03T06:08:20.723Z,17.65
2019-04-03T06:10:51.576Z,13.93
2019-04-03T06:13:22.314Z,17.50
2019-04-03T06:15:53.739Z,11.10
2019-04-03T06:18:26.518Z,13.53
2019-04-03T06:20:57.140Z,11.53
2019-04-03T06:23:27.879Z,6.15
2019-04-03T06:26:00.722Z,8.75
2019-04-03T06:28:30.651Z,7.45
2019-04-03T06:31:01.168Z,7.25
2019-04-03T06:33:33.586Z,7.70
2019-04-03T06:36:05.161Z,7.25
2019-04-03T06:38:35.615Z,8.23
2019-04-03T06:41:07.786Z,5.20
2019-04-03T06:43:38.009Z,5.37
2019-04-03T06:46:08.340Z,19.17
2019-04-03T06:48:38.763Z,27.73
2019-04-03T06:51:09.262Z,11.27
2019-04-03T06:53:39.856Z,15.67
2019-04-03T06:56:10.362Z,14.27
2019-04-03T06:58:43.826Z,9.77
2019-04-03T07:01:12.748Z,10.87
2019-04-03T07:03:43.099Z,8.33
2019-04-03T07:06:13.719Z,9.97
2019-04-03T07:08:44.282Z,15.33
2019-04-03T07:11:23.319Z,13.17
2019-04-03T07:13:47.607Z,9.17
2019-04-03T07:16:17.851Z,9.50
2019-04-03T07:18:48.408Z,12.10
2019-04-03T07:21:18.675Z,11.07
2019-04-03T07:23:49.136Z,14.03
2019-04-03T07:26:19.569Z,11.33
2019-04-03T07:28:50.006Z,12.70
2019-04-03T07:31:23.266Z,11.10
2019-04-03T07:33:52.369Z,9.30
2019-04-03T07:36:23.644Z,11.87
2019-04-03T07:38:53.981Z,9.17
2019-04-03T07:41:24.792Z,12.53
2019-04-03T07:43:58.113Z,8.23
2019-04-03T07:46:27.407Z,11.47
2019-04-03T07:48:59.941Z,17.73
2019-04-03T07:51:29.937Z,9.53
2019-04-03T07:54:03.855Z,11.93
2019-04-03T07:56:33.283Z,12.27
2019-04-03T07:59:04.299Z,7.20
2019-04-03T08:01:34.824Z,10.90
2019-04-03T08:04:05.558Z,11.43
2019-04-03T08:06:36.418Z,10.03
2019-04-03T08:09:10.272Z,10.07
2019-04-03T08:11:42.120Z,8.93
2019-04-03T08:14:12.673Z,12.73
2019-04-03T08:16:43.373Z,14.30
2019-04-03T08:19:14.136Z,10.40
2019-04-03T08:21:44.576Z,9.63
2019-04-03T08:24:15.375Z,15.67
2019-04-03T08:26:50.955Z,11.78
2019-04-03T08:29:21.024Z,33.93
2019-04-03T08:31:52.566Z,17.07
2019-04-03T08:34:22.982Z,16.40
2019-04-03T08:36:54.317Z,12.17
2019-04-03T08:39:24.678Z,12.83
2019-04-03T08:41:56.106Z,16.80
2019-04-03T08:44:27.076Z,13.23
2019-04-03T08:46:57.678Z,9.83
2019-04-03T08:49:28.765Z,9.47
2019-04-03T08:51:59.258Z,10.60
2019-04-03T08:54:30.792Z,10.93
2019-04-03T08:57:01.168Z,16.90
2019-04-03T08:59:32.830Z,13.20
2019-04-03T09:02:03.186Z,13.70
2019-04-03T09:04:33.729Z,12.27
2019-04-03T09:07:04.335Z,12.80
2019-04-03T09:09:35.783Z,10.30
2019-04-03T09:12:18.934Z,12.13
2019-04-03T09:14:49.768Z,17.27
2019-04-03T09:17:20.280Z,12.70
2019-04-03T09:19:50.921Z,13.68
2019-04-03T09:22:22.231Z,12.30
2019-04-03T09:24:53.215Z,16.00
2019-04-03T09:27:25.074Z,15.70
2019-04-03T09:29:56.189Z,13.90
2019-04-03T09:32:26.864Z,16.40
2019-04-03T09:34:58.948Z,14.63
2019-04-03T09:37:30.846Z,19.50
2019-04-03T09:40:01.549Z,14.65
2019-04-03T09:42:32.229Z,15.43
2019-04-03T09:45:03.144Z,19.87
2019-04-03T09:47:35.174Z,18.52
2019-04-03T09:50:10.016Z,15.03
2019-04-03T09:52:48.118Z,19.45
2019-04-03T09:55:13.339Z,15.28
2019-04-03T09:57:43.995Z,16.00
2019-04-03T10:00:16.177Z,13.35
2019-04-03T10:02:46.972Z,18.37
2019-04-03T10:05:17.732Z,16.70
2019-04-03T10:07:48.462Z,18.25
2019-04-03T10:10:20.333Z,15.45
2019-04-03T10:12:53.617Z,16.27
2019-04-03T10:15:23.387Z,12.73
2019-04-03T10:17:54.386Z,14.98
2019-04-03T10:20:25.298Z,14.75
2019-04-03T10:22:56.273Z,15.70
2019-04-03T10:25:27.771Z,12.45
2019-04-03T10:27:58.960Z,12.98
2019-04-03T10:30:30.703Z,10.78
2019-04-03T10:33:02.039Z,12.95
2019-04-03T10:35:32.903Z,15.15
2019-04-03T10:38:03.579Z,10.23
2019-04-03T10:40:36.480Z,11.05
2019-04-03T10:43:07.221Z,13.70
2019-04-03T10:45:38.157Z,11.25
2019-04-03T10:48:09.080Z,12.90
2019-04-03T10:50:41.413Z,12.80
2019-04-03T10:53:12.203Z,15.68
2019-04-03T10:55:43.069Z,17.60
2019-04-03T10:58:13.723Z,16.15
2019-04-03T11:00:45.739Z,19.80
2019-04-03T11:03:16.534Z,14.87
2019-04-03T11:05:47.314Z,16.05
2019-04-03T11:08:18.057Z,16.57
2019-04-03T11:10:48.823Z,20.27
2019-04-03T11:13:19.501Z,17.48
2019-04-03T11:15:50.427Z,17.02
2019-04-03T11:18:21.881Z,18.77
2019-04-03T11:20:52.752Z,17.98
2019-04-03T11:23:36.934Z,28.57
2019-04-03T11:25:56.824Z,17.45
2019-04-03T11:28:27.559Z,15.38
2019-04-03T11:31:01.149Z,14.45
2019-04-03T11:33:30.811Z,15.88
2019-04-03T11:36:02.267Z,14.80
2019-04-03T11:38:34.852Z,16.32
2019-04-03T11:41:13.125Z,16.35
2019-04-03T11:43:42.268Z,17.07
2019-04-03T11:46:13.879Z,15.50
2019-04-03T11:48:46.073Z,20.75
2019-04-03T11:51:19.023Z,14.38
2019-04-03T11:54:02.300Z,17.05
2019-04-03T11:56:33.119Z,25.48
2019-04-03T11:59:04.060Z,15.13
2019-04-03T12:01:36.401Z,15.35
2019-04-03T12:07:03.005Z,10.85
2019-04-03T12:09:33.850Z,14.33
2019-04-03T12:12:04.743Z,15.15
2019-04-03T12:14:49.052Z,13.60
2019-04-03T12:17:21.224Z,14.13
2019-04-03T12:19:52.117Z,13.58
2019-04-03T12:22:23.138Z,10.88
2019-04-03T12:30:57.595Z,16.55
2019-04-03T12:36:15.056Z,13.40
2019-04-03T12:38:45.818Z,20.35
2019-04-03T12:41:16.659Z,14.15
2019-04-03T12:43:55.934Z,12.00
2019-04-03T12:49:51.960Z,11.60
2019-04-03T12:52:15.241Z,14.90
2019-04-03T12:54:48.640Z,10.48
2019-04-03T12:57:33.052Z,14.70
2019-04-03T13:03:47.169Z,9.55
2019-04-03T13:06:20.389Z,9.33
2019-04-03T13:08:54.933Z,20.32
2019-04-03T13:45:36.823Z,10.63
2019-04-03T13:48:07.714Z,14.40
2019-04-03T13:50:39.102Z,13.43
2019-04-03T13:53:09.893Z,15.72
2019-04-03T13:55:40.864Z,11.28
2019-04-03T13:58:12.857Z,10.63
2019-04-03T14:00:57.828Z,9.08
2019-04-03T14:03:19.897Z,12.23
2019-04-03T14:05:50.604Z,11.38
2019-04-03T14:08:24.398Z,13.05
2019-04-03T14:10:57.357Z,23.67
2019-04-03T14:13:27.530Z,34.67
2019-04-03T14:15:58.327Z,19.05
2019-04-03T14:18:29.480Z,15.85
2019-04-03T14:21:00.392Z,13.83
2019-04-03T14:23:34.152Z,14.00
2019-04-03T14:26:07.962Z,9.58
2019-04-03T14:28:38.562Z,12.53
2019-04-03T14:31:10.742Z,13.22
2019-04-03T14:33:58.989Z,11.05
2019-04-03T14:36:32.810Z,12.37
2019-04-03T14:39:08.352Z,11.78
2019-04-03T14:41:48.681Z,12.73
2019-04-03T14:44:25.367Z,9.75
2019-04-03T14:47:03.561Z,8.60
2019-04-03T14:49:59.714Z,8.13
2019-04-03T14:55:47.680Z,4.28
2019-04-03T14:58:07.969Z,3.90
2019-04-03T15:00:40.222Z,3.87
2019-04-03T15:03:11.513Z,4.28
2019-04-03T15:05:46.272Z,5.70
2019-04-03T15:08:23.715Z,4.40
2019-04-03T15:10:55.713Z,3.22
2019-04-03T15:13:28.724Z,3.67
2019-04-03T15:16:11.029Z,4.53
2019-04-03T15:22:07.056Z,20.25
2019-04-03T15:25:10.897Z,26.05
